Terminal Aerodrome Forecast
Issued by NWS Burlington, VT

Home | Current Version | Previous Version | Text Only | Print | Product List | Glossary On
Versions: 1 2 3 4 5 6 7 8 9 10 11 12
000
FTUS41 KBTV 280500
TAFBTV
TAF
KBTV 280524Z 2806/2906 33004KT P6SM SCT060
     FM281400 33010KT P6SM SCT050
     FM281700 33010G20KT P6SM SCT050
     FM290000 33004KT P6SM SKC=

USA.gov is the U.S. government's official web portal to all federal, state and local government web resources and services.